Time;durP1;ratioP1;P1;durP2;ratioP2;P2;SDS_P1;SDS_P2;PMS_P1;PMS_P2;Temp;Humidity;BMP_temperature;BMP_pressure;BME280_temperature;BME280_humidity;BME280_pressure;Samples;Min_cycle;Max_cycle;Signal;HPM_P1;HPM_P2
2022/04/07 00:00:10;;;;;;;19.50;1.67;;;;;;;19.64;47.74;97600.75;7314483;19;129429;-34
2022/04/07 00:02:35;;;;;;;32.83;2.92;;;;;;;19.65;48.19;97593.75;7312522;19;129665;-37
2022/04/07 00:05:01;;;;;;;20.90;1.73;;;;;;;19.66;48.34;97592.75;7308650;19;154906;-36
2022/04/07 00:07:26;;;;;;;18.35;1.63;;;;;;;19.67;47.55;97589.19;7312348;19;129058;-35
2022/04/07 00:09:51;;;;;;;24.10;2.03;;;;;;;19.59;47.79;97577.00;7312119;19;154803;-42
2022/04/07 00:12:16;;;;;;;22.03;1.97;;;;;;;19.69;47.91;97582.78;7311243;19;156948;-36
2022/04/07 00:14:42;;;;;;;28.15;2.38;;;;;;;19.71;47.39;97582.63;7309862;19;131106;-37
2022/04/07 00:17:07;;;;;;;21.35;1.65;;;;;;;19.69;48.09;97585.41;7310012;19;154526;-35
2022/04/07 00:19:32;;;;;;;47.30;4.28;;;;;;;19.72;47.95;97571.22;7311635;19;154176;-40
2022/04/07 00:21:59;;;;;;;18.87;1.53;;;;;;;19.73;47.69;97567.63;7310977;19;158550;-44
2022/04/07 00:24:24;;;;;;;15.48;1.35;;;;;;;19.61;47.30;97554.19;7310143;19;129519;-35
2022/04/07 00:26:50;;;;;;;40.60;3.47;;;;;;;19.94;47.74;97571.16;7310540;19;129450;-38
2022/04/07 00:29:15;;;;;;;39.73;3.70;;;;;;;19.90;48.69;97566.50;7311698;19;154516;-32
2022/04/07 00:31:41;;;;;;;24.33;2.20;;;;;;;19.88;49.43;97563.25;7312893;19;130509;-36
2022/04/07 00:34:07;;;;;;;12.15;1.20;;;;;;;19.89;49.58;97568.28;7308440;19;129388;-40
2022/04/07 00:36:32;;;;;;;17.40;1.52;;;;;;;19.92;49.62;97559.28;7310233;19;129019;-41
2022/04/07 00:38:57;;;;;;;15.82;1.25;;;;;;;19.89;50.74;97559.63;7313506;19;129158;-44
2022/04/07 00:41:23;;;;;;;19.10;1.83;;;;;;;19.91;50.60;97544.63;7310665;19;158612;-35
2022/04/07 00:43:51;;;;;;;17.97;1.60;;;;;;;19.95;51.44;97545.91;7310314;19;158543;-35
2022/04/07 00:46:18;;;;;;;33.13;2.72;;;;;;;19.92;50.57;97541.03;7310865;19;129047;-35
2022/04/07 00:48:43;;;;;;;19.47;1.70;;;;;;;19.92;51.72;97544.44;7312896;19;129038;-33
2022/04/07 00:51:08;;;;;;;34.75;3.28;;;;;;;19.92;51.29;97552.25;7310474;19;159295;-34
2022/04/07 00:53:34;;;;;;;21.40;2.03;;;;;;;19.73;49.74;97541.53;7306913;19;159311;-34
2022/04/07 00:56:01;;;;;;;22.98;1.98;;;;;;;19.58;48.68;97548.53;7312016;19;128951;-39
2022/04/07 00:58:27;;;;;;;;;;;;;;;19.47;48.80;97530.72;7311761;19;129160;-34
2022/04/07 01:00:52;;;;;;;18.15;1.52;;;;;;;19.57;48.85;97550.31;7312134;19;129645;-32
2022/04/07 01:03:18;;;;;;;3.72;0.50;;;;;;;19.59;48.82;97548.34;7309571;19;159249;-38
2022/04/07 01:05:43;;;;;;;22.63;1.98;;;;;;;19.62;48.55;97544.59;7310020;19;154688;-37
2022/04/07 01:08:09;;;;;;;21.77;1.95;;;;;;;19.61;48.12;97540.34;7311093;19;129014;-35
2022/04/07 01:10:34;;;;;;;23.27;2.30;;;;;;;19.57;47.65;97526.06;7311544;19;129470;-44
2022/04/07 01:13:00;;;;;;;14.00;1.13;;;;;;;19.63;48.36;97535.78;7310904;19;129466;-36
2022/04/07 01:15:25;;;;;;;48.25;4.70;;;;;;;19.66;48.08;97527.59;7311602;19;128988;-41
2022/04/07 01:17:50;;;;;;;18.57;1.53;;;;;;;19.67;47.97;97532.63;7312062;19;154490;-33
2022/04/07 01:20:16;;;;;;;23.23;2.00;;;;;;;19.68;47.91;97528.22;7312033;19;129021;-41
2022/04/07 01:22:44;;;;;;;61.33;5.93;;;;;;;19.70;47.60;97521.06;7308667;19;130137;-37
2022/04/07 01:25:10;;;;;;;38.10;3.60;;;;;;;19.69;47.96;97511.59;7297313;19;129243;-40
2022/04/07 01:27:35;;;;;;;22.23;2.08;;;;;;;19.69;47.75;97509.81;7310905;19;129057;-35
2022/04/07 01:30:07;;;;;;;19.48;1.85;;;;;;;19.71;47.40;97517.44;7311898;19;129201;-36
2022/04/07 01:32:36;;;;;;;30.25;2.72;;;;;;;19.70;47.80;97514.03;7310583;19;130528;-36
2022/04/07 01:35:02;;;;;;;12.10;1.05;;;;;;;19.93;47.77;97517.38;7310826;19;129316;-35
2022/04/07 01:37:27;;;;;;;22.13;2.00;;;;;;;19.88;48.99;97508.47;7309977;19;129255;-39
2022/04/07 01:39:53;;;;;;;19.10;1.58;;;;;;;19.84;49.84;97502.81;7310248;19;159224;-35
2022/04/07 01:42:19;;;;;;;38.92;3.65;;;;;;;19.90;49.75;97507.28;7310552;19;129249;-42
2022/04/07 01:44:50;;;;;;;18.42;1.58;;;;;;;19.91;50.75;97508.13;7308996;19;129078;-43
2022/04/07 01:47:19;;;;;;;41.25;3.78;;;;;;;19.83;51.11;97487.34;7309766;19;128887;-39
2022/04/07 01:49:46;;;;;;;24.63;2.17;;;;;;;19.91;50.42;97492.47;7312950;19;129188;-42
2022/04/07 01:52:13;;;;;;;35.17;3.17;;;;;;;19.92;51.50;97486.25;7317386;19;129707;-36
2022/04/07 01:54:42;;;;;;;22.10;2.05;;;;;;;19.94;50.75;97487.72;7315458;19;129414;-34
2022/04/07 01:57:07;;;;;;;8.77;1.05;;;;;;;19.94;50.99;97481.69;7316838;19;128980;-36
2022/04/07 01:59:34;;;;;;;19.58;1.80;;;;;;;19.93;51.51;97475.63;7317976;19;129666;-37
2022/04/07 02:01:59;;;;;;;;;;;;;;;19.72;49.75;97457.31;7318921;19;129190;-34
2022/04/07 02:04:24;;;;;;;20.63;1.83;;;;;;;19.58;48.65;97467.72;7312595;19;154791;-43
2022/04/07 02:06:50;;;;;;;21.57;1.77;;;;;;;19.58;49.05;97470.34;7316729;19;153529;-32
2022/04/07 02:09:15;;;;;;;29.75;2.55;;;;;;;19.61;48.26;97464.75;7314753;19;151357;-38
2022/04/07 02:11:41;;;;;;;19.55;1.70;;;;;;;19.61;48.61;97460.38;7317960;19;129265;-41
2022/04/07 02:14:06;;;;;;;26.35;2.33;;;;;;;19.62;48.21;97455.97;7315542;19;129057;-34
2022/04/07 02:16:31;;;;;;;20.77;1.73;;;;;;;19.57;48.50;97448.66;7315066;19;154217;-41
2022/04/07 02:18:57;;;;;;;13.10;1.13;;;;;;;19.62;47.82;97464.56;7315751;19;159317;-32
2022/04/07 02:21:22;;;;;;;21.98;1.95;;;;;;;19.58;48.47;97445.09;7314524;19;129674;-34
2022/04/07 02:23:47;;;;;;;18.35;1.65;;;;;;;19.67;47.85;97453.63;7315153;19;136920;-41
2022/04/07 02:26:15;;;;;;;23.38;1.85;;;;;;;19.68;47.76;97455.25;7314388;19;129427;-39
2022/04/07 02:28:41;;;;;;;19.95;1.92;;;;;;;19.71;47.94;97454.88;7316510;19;129141;-40
2022/04/07 02:31:06;;;;;;;19.77;1.75;;;;;;;19.69;47.46;97446.44;7317835;19;129936;-34
2022/04/07 02:33:34;;;;;;;9.82;0.93;;;;;;;19.63;47.83;97437.53;7313264;19;129115;-45
2022/04/07 02:35:59;;;;;;;20.73;1.92;;;;;;;19.71;47.33;97452.28;7315127;19;129066;-33
2022/04/07 02:38:25;;;;;;;15.82;1.20;;;;;;;19.72;47.55;97451.31;7316108;19;130304;-31
2022/04/07 02:40:50;;;;;;;23.83;2.10;;;;;;;19.95;47.82;97458.03;7312902;19;158993;-34
2022/04/07 02:43:15;;;;;;;21.87;1.83;;;;;;;19.91;48.77;97458.56;7314976;19;154908;-36
2022/04/07 02:45:40;;;;;;;21.30;1.93;;;;;;;19.89;49.11;97452.72;7314091;19;152925;-39
2022/04/07 02:48:06;;;;;;;16.67;1.33;;;;;;;19.88;49.61;97445.91;7316343;19;158590;-32
2022/04/07 02:50:31;;;;;;;9.52;1.23;;;;;;;19.90;51.32;97443.94;7311909;19;129183;-38
2022/04/07 02:52:56;;;;;;;20.10;1.67;;;;;;;19.91;50.68;97445.53;7315286;19;129430;-37
2022/04/07 02:55:22;;;;;;;43.70;4.10;;;;;;;19.94;51.09;97445.97;7315033;19;153921;-36
2022/04/07 02:57:47;;;;;;;25.73;2.42;;;;;;;19.92;51.31;97436.72;7316527;19;130752;-37
2022/04/07 03:00:13;;;;;;;20.52;1.98;;;;;;;19.96;51.04;97444.00;7314731;19;129303;-44
2022/04/07 03:02:38;;;;;;;19.33;1.85;;;;;;;19.96;51.17;97443.19;7314075;19;128944;-38
2022/04/07 03:05:03;;;;;;;19.20;1.70;;;;;;;19.95;50.90;97441.59;7312301;19;155135;-38
2022/04/07 03:07:29;;;;;;;9.93;0.80;;;;;;;19.77;49.15;97431.50;7314165;19;129670;-37
2022/04/07 03:09:54;;;;;;;17.23;1.47;;;;;;;19.53;49.14;97416.16;7314334;19;156386;-35
2022/04/07 03:12:19;;;;;;;21.70;2.13;;;;;;;19.60;48.37;97424.88;7313766;19;146819;-35
2022/04/07 03:14:44;;;;;;;26.52;2.33;;;;;;;19.61;48.04;97417.84;7313243;19;129439;-34
2022/04/07 03:17:10;;;;;;;10.80;1.00;;;;;;;19.59;48.11;97420.63;7314556;19;129374;-37
2022/04/07 03:19:35;;;;;;;31.67;2.78;;;;;;;19.62;47.82;97419.47;7314357;19;158575;-43
2022/04/07 03:22:01;;;;;;;15.68;1.30;;;;;;;19.66;48.23;97410.28;7311697;19;129176;-31
2022/04/07 03:24:26;;;;;;;49.75;4.68;;;;;;;19.67;48.14;97407.50;7303243;19;129460;-46
2022/04/07 03:26:52;;;;;;;5.85;0.60;;;;;;;19.67;48.07;97406.72;7308536;19;131040;-43
2022/04/07 03:29:19;;;;;;;19.48;1.75;;;;;;;19.61;48.25;97382.16;7316257;19;129493;-43
2022/04/07 03:31:45;;;;;;;28.52;2.50;;;;;;;19.64;48.01;97392.22;7312189;19;129287;-34
2022/04/07 03:34:10;;;;;;;20.27;1.88;;;;;;;19.72;48.00;97394.75;7311955;19;130095;-42
2022/04/07 03:36:36;;;;;;;22.67;2.05;;;;;;;19.71;48.04;97389.72;7315609;19;129074;-41
2022/04/07 03:39:01;;;;;;;16.87;1.50;;;;;;;19.73;47.22;97387.75;7314126;19;146806;-39
2022/04/07 03:41:28;;;;;;;15.27;1.33;;;;;;;19.70;47.41;97386.28;7313563;19;154159;-36
2022/04/07 03:43:53;;;;;;;;;;;;;;;19.94;49.62;97393.00;7313457;19;129177;-34
2022/04/07 03:46:21;;;;;;;30.50;2.83;;;;;;;19.88;49.04;97383.31;7312568;19;130770;-41
2022/04/07 03:48:49;;;;;;;20.58;1.90;;;;;;;19.88;50.02;97378.09;7314650;19;129564;-40
2022/04/07 03:51:15;;;;;;;17.90;1.63;;;;;;;19.91;50.58;97380.34;7312567;19;129172;-40
2022/04/07 03:53:41;;;;;;;22.37;2.03;;;;;;;19.86;50.96;97369.66;7312051;19;129082;-39
2022/04/07 03:56:06;;;;;;;17.48;1.58;;;;;;;19.97;50.58;97377.00;7313770;19;130847;-36
2022/04/07 03:58:31;;;;;;;16.55;1.75;;;;;;;19.96;50.81;97381.41;7314526;19;129210;-36
2022/04/07 04:00:58;;;;;;;45.07;3.73;;;;;;;19.96;51.41;97380.59;7311380;19;154411;-42
2022/04/07 04:03:23;;;;;;;26.85;2.70;;;;;;;19.87;51.39;97366.03;7307736;19;129276;-40
2022/04/07 04:05:48;;;;;;;21.90;1.97;;;;;;;19.97;51.79;97382.22;7313469;19;148195;-37
2022/04/07 04:08:13;;;;;;;9.43;1.23;;;;;;;19.96;51.11;97380.59;7312857;19;129540;-44
2022/04/07 04:10:39;;;;;;;38.35;3.25;;;;;;;19.65;48.94;97374.81;7311764;19;154401;-42
2022/04/07 04:13:04;;;;;;;31.13;2.75;;;;;;;19.58;49.07;97364.28;7306796;19;154175;-35
2022/04/07 04:15:29;;;;;;;28.40;2.40;;;;;;;19.63;48.55;97363.75;7312303;19;130224;-34
2022/04/07 04:17:55;;;;;;;28.17;2.65;;;;;;;19.59;48.53;97365.09;7310547;19;158654;-41
2022/04/07 04:20:20;;;;;;;26.57;2.47;;;;;;;19.63;48.54;97363.75;7309452;19;154384;-30
2022/04/07 04:22:45;;;;;;;36.37;3.23;;;;;;;19.66;47.95;97355.56;7309989;19;153601;-38
2022/04/07 04:25:10;;;;;;;29.85;2.65;;;;;;;19.68;47.73;97356.19;7306920;19;157315;-38
2022/04/07 04:27:36;;;;;;;17.80;1.50;;;;;;;19.66;48.07;97352.94;7313144;19;129703;-34
2022/04/07 04:30:02;;;;;;;24.67;2.17;;;;;;;19.70;47.42;97343.78;7311315;19;141914;-37
2022/04/07 04:32:27;;;;;;;43.85;4.10;;;;;;;19.70;48.10;97349.00;7309171;19;128956;-44
2022/04/07 04:34:52;;;;;;;32.42;2.95;;;;;;;19.69;47.68;97353.41;7310072;19;130182;-42
2022/04/07 04:37:17;;;;;;;8.77;0.85;;;;;;;19.70;47.39;97338.56;7310406;19;158478;-42
2022/04/07 04:39:43;;;;;;;23.20;2.20;;;;;;;19.71;47.96;97340.19;7311907;19;147619;-38
2022/04/07 04:42:08;;;;;;;54.33;5.05;;;;;;;19.74;47.40;97334.59;7311745;19;129334;-37
2022/04/07 04:44:34;;;;;;;15.88;1.63;;;;;;;19.74;47.72;97335.41;7309011;19;129247;-40
2022/04/07 04:46:59;;;;;;;23.63;2.10;;;;;;;19.75;47.06;97337.03;7311201;19;158680;-41
2022/04/07 04:49:24;;;;;;;24.55;2.08;;;;;;;19.75;47.25;97339.63;7311551;19;134924;-36
2022/04/07 04:51:50;;;;;;;25.08;2.28;;;;;;;19.77;47.89;97335.03;7310229;19;130365;-35
2022/04/07 04:54:15;;;;;;;24.33;2.42;;;;;;;19.96;48.66;97333.66;7306321;19;147935;-35
2022/04/07 04:56:41;;;;;;;19.83;1.75;;;;;;;19.89;49.39;97330.97;7309603;19;129286;-45
2022/04/07 04:59:07;;;;;;;19.07;1.73;;;;;;;19.92;50.02;97321.97;7311892;19;129372;-35
2022/04/07 05:01:32;;;;;;;33.38;3.00;;;;;;;19.91;50.23;97322.97;7310863;19;128912;-48
2022/04/07 05:03:57;;;;;;;31.00;2.83;;;;;;;19.95;50.55;97311.19;7307799;19;158522;-45
2022/04/07 05:06:23;;;;;;;25.50;2.17;;;;;;;19.97;50.49;97315.22;7307911;19;159232;-36
2022/04/07 05:08:48;;;;;;;83.07;8.48;;;;;;;19.88;51.63;97297.28;7295098;19;142280;-35
2022/04/07 05:11:14;;;;;;;34.78;3.40;;;;;;;19.98;50.68;97311.59;7307575;19;129128;-40
2022/04/07 05:13:39;;;;;;;55.70;5.17;;;;;;;19.87;51.49;97296.47;7301837;19;153260;-47
2022/04/07 05:16:07;;;;;;;20.15;1.73;;;;;;;19.93;51.94;97303.53;7310986;19;129081;-31
2022/04/07 05:18:33;;;;;;;20.08;1.90;;;;;;;19.90;51.15;97303.13;7311937;19;128914;-36
2022/04/07 05:20:58;;;;;;;8.80;0.82;;;;;;;19.64;49.12;97308.81;7307308;19;129370;-41
2022/04/07 05:23:23;;;;;;;19.93;1.67;;;;;;;19.61;48.76;97303.97;7308440;19;158232;-39
2022/04/07 05:25:48;;;;;;;23.17;2.23;;;;;;;19.61;48.63;97311.81;7314113;19;158722;-40
2022/04/07 05:28:14;;;;;;;17.97;1.67;;;;;;;19.54;48.32;97292.66;7317430;19;154549;-36
2022/04/07 05:30:39;;;;;;;25.15;2.30;;;;;;;19.65;48.42;97300.00;7318057;19;129456;-44
2022/04/07 05:33:04;;;;;;;26.15;2.63;;;;;;;19.63;48.29;97291.59;7314937;19;158475;-46
2022/04/07 05:35:30;;;;;;;44.15;3.72;;;;;;;19.69;48.21;97298.66;7311446;19;129734;-36
2022/04/07 05:38:02;;;;;;;26.77;2.38;;;;;;;19.70;47.91;97302.09;7316416;19;129002;-36
2022/04/07 05:40:28;;;;;;;18.48;1.65;;;;;;;19.67;47.60;97300.63;7315601;19;129125;-47
2022/04/07 05:42:54;;;;;;;16.07;1.43;;;;;;;19.69;47.64;97310.88;7318224;19;130739;-37
2022/04/07 05:45:19;;;;;;;15.90;1.80;;;;;;;19.73;47.78;97296.50;7315865;19;130669;-38
2022/04/07 05:47:44;;;;;;;19.13;1.67;;;;;;;19.62;47.49;97281.34;7316784;19;152997;-41
2022/04/07 05:50:10;;;;;;;30.23;2.67;;;;;;;19.74;47.45;97298.09;7317251;19;154221;-38
2022/04/07 05:52:36;;;;;;;9.93;1.13;;;;;;;19.75;47.90;97300.53;7318143;19;129047;-36
2022/04/07 05:55:01;;;;;;;18.30;1.67;;;;;;;19.98;47.80;97297.78;7316012;19;141249;-39
2022/04/07 05:57:27;;;;;;;18.63;1.60;;;;;;;19.89;49.40;97278.84;7317772;19;128962;-38
2022/04/07 05:59:53;;;;;;;16.75;1.58;;;;;;;19.92;49.59;97286.28;7319184;19;129499;-39
2022/04/07 06:02:18;;;;;;;13.98;1.52;;;;;;;19.91;50.03;97276.03;7316474;19;158374;-44
2022/04/07 06:04:43;;;;;;;24.15;2.20;;;;;;;19.94;49.84;97275.66;7315092;19;158799;-38
2022/04/07 06:07:09;;;;;;;27.55;2.28;;;;;;;19.91;50.62;97268.22;7317070;19;128982;-39
2022/04/07 06:09:35;;;;;;;19.10;2.05;;;;;;;19.94;50.85;97271.25;7317084;19;152463;-38
2022/04/07 06:12:00;;;;;;;19.30;2.13;;;;;;;19.96;50.91;97265.84;7318338;19;130161;-37
2022/04/07 06:14:26;;;;;;;12.43;1.17;;;;;;;19.95;51.08;97264.25;7316101;19;129240;-33
2022/04/07 06:16:51;;;;;;;18.77;1.60;;;;;;;19.96;51.16;97253.63;7316430;19;147796;-32
2022/04/07 06:19:16;;;;;;;19.65;1.90;;;;;;;19.96;51.74;97261.47;7316509;19;153874;-38
2022/04/07 06:21:43;;;;;;;19.65;1.73;;;;;;;19.74;49.37;97245.97;7317464;19;158858;-43
2022/04/07 06:24:08;;;;;;;22.27;2.20;;;;;;;19.61;48.71;97253.66;7314633;19;129545;-34
2022/04/07 06:26:34;;;;;;;20.10;1.70;;;;;;;19.48;48.64;97235.25;7317427;19;129284;-32
2022/04/07 06:28:59;;;;;;;16.98;1.58;;;;;;;19.59;48.31;97246.00;7316644;19;129221;-41
2022/04/07 06:31:24;;;;;;;21.25;2.13;;;;;;;19.55;48.42;97236.16;7317117;19;129168;-37
2022/04/07 06:33:50;;;;;;;24.92;2.35;;;;;;;19.66;48.09;97251.28;7314923;19;129424;-40
2022/04/07 06:36:15;;;;;;;14.77;1.35;;;;;;;19.57;48.41;97228.97;7315204;19;129086;-35
2022/04/07 06:38:40;;;;;;;13.90;1.33;;;;;;;19.68;48.22;97247.53;7317816;19;136778;-42
2022/04/07 06:41:06;;;;;;;18.83;1.73;;;;;;;19.65;47.72;97242.66;7316184;19;141826;-46
2022/04/07 06:43:31;;;;;;;19.10;1.67;;;;;;;19.67;48.05;97235.47;7316111;19;129337;-37
2022/04/07 06:45:57;;;;;;;15.77;1.47;;;;;;;19.64;47.58;97232.41;7315090;19;154769;-34
2022/04/07 06:48:22;;;;;;;17.63;1.73;;;;;;;19.71;47.97;97241.13;7314642;19;154701;-37
2022/04/07 06:50:47;;;;;;;17.30;1.60;;;;;;;19.60;47.41;97213.75;7316457;19;129279;-35
2022/04/07 06:53:12;;;;;;;21.83;2.00;;;;;;;19.71;47.94;97233.31;7314566;19;159508;-37
2022/04/07 06:55:39;;;;;;;10.30;1.15;;;;;;;19.66;47.70;97212.19;7316432;19;129088;-41
2022/04/07 06:58:06;;;;;;;23.73;2.28;;;;;;;19.78;48.21;97210.72;7316512;19;128782;-41
2022/04/07 07:00:41;;;;;;;17.40;1.70;;;;;;;19.94;49.00;97221.72;7315988;19;130277;-36
2022/04/07 07:03:06;;;;;;;23.00;2.10;;;;;;;19.91;49.07;97236.94;7316050;19;129315;-38
2022/04/07 07:05:33;;;;;;;21.25;2.05;;;;;;;19.89;49.63;97220.66;7315025;19;155252;-33
2022/04/07 07:08:21;;;;;;;8.98;0.93;;;;;;;19.91;51.24;97222.09;7316791;19;128967;-39
2022/04/07 07:10:50;;;;;;;2.00;0.50;;;;;;;19.97;50.89;97210.91;7315564;19;129287;-41
2022/04/07 07:13:17;;;;;;;20.38;1.88;;;;;;;19.94;49.99;97206.06;7315865;19;129181;-32
2022/04/07 07:15:43;;;;;;;;;;;;;;;20.01;51.06;97206.13;7316598;19;129019;-43
2022/04/07 07:18:09;;;;;;;22.52;2.10;;;;;;;19.96;50.89;97195.44;7316858;19;128925;-33
2022/04/07 07:20:35;;;;;;;16.33;1.47;;;;;;;19.96;51.07;97208.50;7316478;19;129221;-39
2022/04/07 07:23:00;;;;;;;17.53;1.67;;;;;;;19.96;51.52;97177.19;7315101;19;132567;-38
2022/04/07 07:25:26;;;;;;;22.40;2.00;;;;;;;19.96;50.87;97177.19;7315200;19;130099;-35
2022/04/07 07:27:51;;;;;;;15.05;1.52;;;;;;;19.67;48.93;97169.53;7315304;19;129004;-41
2022/04/07 07:30:17;;;;;;;13.82;1.17;;;;;;;19.58;48.46;97147.16;7314172;19;159098;-36
2022/04/07 07:32:44;;;;;;;17.60;1.83;;;;;;;19.58;48.21;97154.97;7315785;19;129235;-35
2022/04/07 07:35:11;;;;;;;22.45;2.20;;;;;;;19.60;48.12;97159.03;7313911;19;129279;-36
2022/04/07 07:37:37;;;;;;;21.50;2.00;;;;;;;19.62;48.10;97153.63;7316533;19;129655;-35
2022/04/07 07:40:08;;;;;;;10.65;1.23;;;;;;;19.66;48.13;97154.84;7314112;19;129072;-38
2022/04/07 07:42:38;;;;;;;15.43;1.35;;;;;;;19.56;47.75;97136.13;7315416;19;129111;-35
2022/04/07 07:45:07;;;;;;;29.67;2.70;;;;;;;19.65;47.91;97143.63;7311823;19;129296;-34
2022/04/07 07:47:33;;;;;;;18.95;1.60;;;;;;;19.66;48.00;97139.22;7313219;19;129029;-35
2022/04/07 07:49:58;;;;;;;14.13;1.25;;;;;;;19.68;47.78;97145.06;7316400;19;129200;-40
2022/04/07 07:52:23;;;;;;;16.35;1.48;;;;;;;19.69;47.83;97133.63;7314818;19;129716;-39
2022/04/07 07:54:49;;;;;;;21.90;2.08;;;;;;;19.64;47.66;97128.97;7311810;19;154032;-43
2022/04/07 07:57:14;;;;;;;15.70;1.40;;;;;;;19.69;47.70;97136.22;7313344;19;154568;-39
2022/04/07 07:59:39;;;;;;;17.20;1.60;;;;;;;19.72;47.87;97154.91;7315264;19;129090;-39
2022/04/07 08:02:04;;;;;;;18.23;1.80;;;;;;;19.83;48.52;97119.72;7313121;19;159312;-39
2022/04/07 08:04:30;;;;;;;17.70;1.60;;;;;;;19.97;47.80;97124.03;7312402;19;154456;-35
2022/04/07 08:06:55;;;;;;;6.57;0.75;;;;;;;19.89;48.88;97132.00;7313325;19;154009;-34
2022/04/07 08:09:20;;;;;;;18.90;1.55;;;;;;;19.91;49.69;97123.00;7313766;19;159065;-39
2022/04/07 08:11:45;;;;;;;25.50;2.63;;;;;;;19.92;50.12;97129.00;7313890;19;157568;-41
2022/04/07 08:14:11;;;;;;;17.10;1.73;;;;;;;19.96;50.02;97131.06;7312072;19;154508;-37
2022/04/07 08:16:37;;;;;;;20.57;1.90;;;;;;;19.96;50.87;97130.25;7312854;19;154952;-39
2022/04/07 08:19:03;;;;;;;4.33;0.67;;;;;;;19.94;51.32;97117.41;7315471;19;129475;-35
2022/04/07 08:21:29;;;;;;;5.90;0.65;;;;;;;19.97;51.22;97126.66;7314351;19;129631;-36
2022/04/07 08:23:54;;;;;;;22.33;2.05;;;;;;;19.90;51.25;97110.16;7311659;19;140295;-35
2022/04/07 08:26:20;;;;;;;13.25;1.17;;;;;;;19.97;51.02;97121.44;7312367;19;153361;-34
2022/04/07 08:28:45;;;;;;;14.60;1.27;;;;;;;19.96;51.68;97098.97;7314044;19;129091;-42
2022/04/07 08:31:10;;;;;;;15.68;1.42;;;;;;;19.67;49.08;97110.34;7315366;19;130413;-36
2022/04/07 08:33:36;;;;;;;12.55;1.27;;;;;;;19.61;49.25;97105.09;7311841;19;154628;-34
2022/04/07 08:36:01;;;;;;;19.15;1.77;;;;;;;19.60;48.85;97109.50;7313304;19;128646;-37
2022/04/07 08:38:27;;;;;;;21.70;2.10;;;;;;;19.67;47.90;97096.53;7314732;19;129301;-33
2022/04/07 08:40:54;;;;;;;3.13;0.40;;;;;;;19.65;48.42;97101.91;7312615;19;158427;-32
2022/04/07 08:43:19;;;;;;;13.50;1.10;;;;;;;19.64;47.97;97096.88;7312880;19;128793;-34
2022/04/07 08:45:45;;;;;;;16.15;1.35;;;;;;;19.64;47.92;97099.50;7311328;19;154834;-39
2022/04/07 08:48:12;;;;;;;17.67;1.65;;;;;;;19.66;48.06;97100.94;7313356;19;130155;-40
2022/04/07 08:50:42;;;;;;;14.98;1.30;;;;;;;19.69;48.10;97082.31;7314133;19;129128;-44
2022/04/07 08:53:08;;;;;;;22.83;2.05;;;;;;;19.61;48.18;97063.38;7312971;19;129015;-34
2022/04/07 08:55:33;;;;;;;21.02;2.08;;;;;;;19.73;47.59;97067.09;7310335;19;129282;-42
2022/04/07 08:57:59;;;;;;;12.75;1.10;;;;;;;19.70;47.86;97062.28;7313137;19;129105;-39
2022/04/07 09:00:25;;;;;;;18.70;1.60;;;;;;;19.72;47.42;97055.06;7314042;19;129100;-37
2022/04/07 09:02:52;;;;;;;19.13;1.67;;;;;;;19.62;48.06;97028.53;7313524;19;128987;-35
2022/04/07 09:05:24;;;;;;;21.08;1.85;;;;;;;19.71;47.86;97038.63;7309813;19;129014;-33
2022/04/07 09:07:51;;;;;;;18.50;1.73;;;;;;;19.72;47.99;97031.63;7312818;19;129198;-40
2022/04/07 09:10:19;;;;;;;16.88;1.48;;;;;;;19.74;47.21;97011.34;7313194;19;129163;-42
2022/04/07 09:12:44;;;;;;;18.70;1.70;;;;;;;19.73;47.74;97020.19;7313274;19;128865;-41
2022/04/07 09:15:12;;;;;;;23.55;1.95;;;;;;;20.00;47.42;97011.53;7310150;19;128834;-38
2022/04/07 09:17:54;;;;;;;19.33;1.73;;;;;;;19.87;48.94;96987.97;7313025;19;129592;-40
2022/04/07 09:20:21;;;;;;;17.58;1.48;;;;;;;19.90;49.69;96998.03;7312264;19;129421;-37
2022/04/07 09:22:58;;;;;;;17.55;1.38;;;;;;;19.93;49.87;97010.69;7312277;19;129097;-42
2022/04/07 09:25:24;;;;;;;19.85;1.83;;;;;;;19.87;50.22;96985.38;7309461;19;128884;-41
2022/04/07 09:27:49;;;;;;;13.23;1.13;;;;;;;19.97;50.50;96997.06;7311245;19;129077;-38
2022/04/07 09:30:15;;;;;;;13.98;1.15;;;;;;;19.98;50.80;96992.69;7312317;19;131360;-36
2022/04/07 09:32:43;;;;;;;17.80;1.70;;;;;;;19.97;50.98;96975.41;7309688;19;155265;-38
2022/04/07 09:35:08;;;;;;;14.23;1.30;;;;;;;19.98;50.55;96977.03;7309787;19;129086;-38
2022/04/07 09:37:34;;;;;;;20.27;2.03;;;;;;;19.99;50.95;97002.09;7311678;19;130201;-36
2022/04/07 09:40:05;;;;;;;21.15;2.13;;;;;;;19.99;51.37;96999.50;7311806;19;130459;-36
2022/04/07 09:42:32;;;;;;;13.43;1.20;;;;;;;19.77;49.18;96996.16;7311855;19;128882;-40
2022/04/07 09:44:59;;;;;;;;;;;;;;;19.52;48.56;96962.91;7311165;19;129021;-41
2022/04/07 09:47:37;;;;;;;18.90;1.73;;;;;;;19.60;48.43;96976.59;7311418;19;130028;-35
2022/04/07 09:50:03;;;;;;;7.57;0.90;;;;;;;19.62;48.69;96968.59;7311148;19;129188;-35
2022/04/07 09:52:28;;;;;;;14.10;1.15;;;;;;;19.64;48.62;96953.53;7311408;19;129103;-33
2022/04/07 09:55:02;;;;;;;21.60;2.00;;;;;;;19.66;47.66;96951.56;7309476;19;129138;-34
2022/04/07 09:57:28;;;;;;;14.18;1.20;;;;;;;19.67;47.69;96942.75;7311122;19;129699;-45
2022/04/07 09:59:54;;;;;;;28.83;2.45;;;;;;;19.68;47.79;96944.34;7310577;19;129214;-37
2022/04/07 10:02:19;;;;;;;15.30;1.27;;;;;;;19.69;48.13;96930.31;7309986;19;154671;-37
2022/04/07 10:04:46;;;;;;;19.00;1.88;;;;;;;19.69;48.02;96945.97;7308750;19;129519;-35
2022/04/07 10:07:13;;;;;;;18.17;1.50;;;;;;;19.59;47.66;96919.44;7310206;19;129315;-31
2022/04/07 10:09:41;;;;;;;19.48;1.90;;;;;;;19.71;47.52;96904.88;7310297;19;129289;-44
2022/04/07 10:12:08;;;;;;;23.80;2.05;;;;;;;19.72;47.81;96916.94;7317185;19;129277;-39
2022/04/07 10:14:34;;;;;;;16.63;1.40;;;;;;;19.75;47.25;96900.91;7317012;19;129271;-34
2022/04/07 10:17:00;;;;;;;20.65;1.65;;;;;;;19.74;47.34;96901.88;7317720;19;129639;-34
2022/04/07 10:19:44;;;;;;;16.55;1.33;;;;;;;19.71;47.82;96884.03;7318964;19;129682;-30
2022/04/07 10:22:22;;;;;;;21.83;1.73;;;;;;;19.76;47.40;96889.47;7318417;19;129130;-37
2022/04/07 10:24:54;;;;;;;16.77;1.50;;;;;;;19.94;48.04;96897.56;7316034;19;128965;-40
2022/04/07 10:27:22;;;;;;;15.02;1.30;;;;;;;19.94;48.33;96874.91;7317314;19;130784;-38
2022/04/07 10:30:10;;;;;;;16.67;1.55;;;;;;;19.92;49.86;96876.09;7317243;19;129396;-39
2022/04/07 10:32:43;;;;;;;17.63;1.50;;;;;;;19.93;50.60;96862.06;7316817;19;128879;-32
2022/04/07 10:35:28;;;;;;;23.10;2.05;;;;;;;19.94;49.83;96866.28;7315204;19;129603;-34
2022/04/07 10:37:54;;;;;;;9.07;0.80;;;;;;;19.97;51.07;96866.69;7317734;19;129278;-37
2022/04/07 10:40:39;;;;;;;13.80;1.17;;;;;;;20.01;51.04;96846.25;7316475;19;129619;-41
2022/04/07 10:43:06;;;;;;;18.10;1.52;;;;;;;19.89;50.89;96832.16;7315957;19;128817;-34
2022/04/07 10:45:36;;;;;;;34.55;3.15;;;;;;;19.98;51.16;96833.59;7316685;19;129329;-36
2022/04/07 10:48:21;;;;;;;16.33;1.50;;;;;;;19.98;51.69;96823.19;7317169;19;129108;-42
2022/04/07 10:50:49;;;;;;;17.13;1.65;;;;;;;19.86;51.80;96809.09;7317479;19;129293;-39
2022/04/07 10:53:25;;;;;;;17.60;1.52;;;;;;;19.66;48.42;96805.59;7315383;19;128928;-37
2022/04/07 10:56:00;;;;;;;14.52;1.40;;;;;;;19.59;48.37;96815.19;7314793;19;129061;-38
2022/04/07 10:58:41;;;;;;;17.17;1.45;;;;;;;19.54;47.93;96788.91;7316720;19;128976;-41
2022/04/07 11:01:13;;;;;;;16.58;1.35;;;;;;;19.65;48.30;96809.22;7316314;19;129400;-38
2022/04/07 11:03:41;;;;;;;11.50;1.13;;;;;;;19.66;48.00;96811.63;7314453;19;128832;-43
2022/04/07 11:06:07;;;;;;;18.40;1.58;;;;;;;19.65;48.14;96793.59;7317233;19;129533;-34
2022/04/07 11:08:33;;;;;;;15.30;1.43;;;;;;;19.67;47.85;96809.84;7316335;19;129067;-34
2022/04/07 11:10:58;;;;;;;13.10;1.17;;;;;;;19.67;48.23;96765.53;7316642;19;129260;-47
2022/04/07 11:13:43;;;;;;;15.93;1.40;;;;;;;19.58;48.05;96777.13;7316467;19;128795;-32
2022/04/07 11:16:36;;;;;;;16.05;1.38;;;;;;;19.71;47.28;96796.22;7313351;19;128860;-38